sensor_id;sensor_type;location;lat;lon;timestamp;P1;durP1;ratioP1;P2;durP2;ratioP2
40284;SDS011;25997;50.214;19.354;2023-07-28T00:00:21;6.25;;;3.38;;
40284;SDS011;25997;50.214;19.354;2023-07-28T00:03:23;4.60;;;3.42;;
40284;SDS011;25997;50.214;19.354;2023-07-28T00:06:25;5.72;;;3.70;;
40284;SDS011;25997;50.214;19.354;2023-07-28T00:09:29;5.88;;;3.42;;
40284;SDS011;25997;50.214;19.354;2023-07-28T00:12:32;4.70;;;3.92;;
40284;SDS011;25997;50.214;19.354;2023-07-28T00:15:34;4.07;;;2.92;;
40284;SDS011;25997;50.214;19.354;2023-07-28T00:18:37;4.30;;;3.00;;
40284;SDS011;25997;50.214;19.354;2023-07-28T00:21:39;4.38;;;2.97;;
40284;SDS011;25997;50.214;19.354;2023-07-28T00:24:43;3.78;;;3.05;;
40284;SDS011;25997;50.214;19.354;2023-07-28T00:27:46;3.83;;;2.60;;
40284;SDS011;25997;50.214;19.354;2023-07-28T00:30:48;5.75;;;2.97;;
40284;SDS011;25997;50.214;19.354;2023-07-28T00:33:51;4.28;;;2.65;;
40284;SDS011;25997;50.214;19.354;2023-07-28T00:36:53;3.22;;;2.72;;
40284;SDS011;25997;50.214;19.354;2023-07-28T00:39:57;3.85;;;2.53;;
40284;SDS011;25997;50.214;19.354;2023-07-28T00:42:59;4.05;;;2.70;;
40284;SDS011;25997;50.214;19.354;2023-07-28T00:46:02;4.03;;;2.92;;
40284;SDS011;25997;50.214;19.354;2023-07-28T00:49:05;3.92;;;3.05;;
40284;SDS011;25997;50.214;19.354;2023-07-28T00:52:07;4.63;;;2.88;;
40284;SDS011;25997;50.214;19.354;2023-07-28T00:55:11;5.15;;;2.88;;
40284;SDS011;25997;50.214;19.354;2023-07-28T00:58:14;3.60;;;2.72;;
40284;SDS011;25997;50.214;19.354;2023-07-28T01:01:18;4.18;;;2.85;;
40284;SDS011;25997;50.214;19.354;2023-07-28T01:04:22;5.20;;;3.22;;
40284;SDS011;25997;50.214;19.354;2023-07-28T01:07:26;4.18;;;2.88;;
40284;SDS011;25997;50.214;19.354;2023-07-28T01:10:33;3.63;;;2.90;;
40284;SDS011;25997;50.214;19.354;2023-07-28T01:13:36;3.30;;;2.50;;
40284;SDS011;25997;50.214;19.354;2023-07-28T01:16:38;4.18;;;3.00;;
40284;SDS011;25997;50.214;19.354;2023-07-28T01:19:42;4.82;;;2.95;;
40284;SDS011;25997;50.214;19.354;2023-07-28T01:22:49;3.90;;;2.70;;
40284;SDS011;25997;50.214;19.354;2023-07-28T01:26:03;4.47;;;3.10;;
40284;SDS011;25997;50.214;19.354;2023-07-28T01:29:11;5.20;;;2.65;;
40284;SDS011;25997;50.214;19.354;2023-07-28T01:32:15;3.88;;;2.90;;
40284;SDS011;25997;50.214;19.354;2023-07-28T01:35:18;4.97;;;3.38;;
40284;SDS011;25997;50.214;19.354;2023-07-28T01:38:20;3.60;;;2.63;;
40284;SDS011;25997;50.214;19.354;2023-07-28T01:41:23;5.05;;;3.35;;
40284;SDS011;25997;50.214;19.354;2023-07-28T01:44:27;3.60;;;2.70;;
40284;SDS011;25997;50.214;19.354;2023-07-28T01:47:29;5.65;;;3.70;;
40284;SDS011;25997;50.214;19.354;2023-07-28T01:50:32;3.78;;;2.63;;
40284;SDS011;25997;50.214;19.354;2023-07-28T01:53:34;3.53;;;3.22;;
40284;SDS011;25997;50.214;19.354;2023-07-28T01:56:37;3.70;;;2.60;;
40284;SDS011;25997;50.214;19.354;2023-07-28T01:59:41;4.57;;;2.88;;
40284;SDS011;25997;50.214;19.354;2023-07-28T02:02:43;3.28;;;2.65;;
40284;SDS011;25997;50.214;19.354;2023-07-28T02:05:47;4.35;;;2.67;;
40284;SDS011;25997;50.214;19.354;2023-07-28T02:08:50;3.95;;;2.47;;
40284;SDS011;25997;50.214;19.354;2023-07-28T02:11:52;5.93;;;2.80;;
40284;SDS011;25997;50.214;19.354;2023-07-28T02:14:56;4.25;;;2.80;;
40284;SDS011;25997;50.214;19.354;2023-07-28T02:17:59;4.82;;;2.58;;
40284;SDS011;25997;50.214;19.354;2023-07-28T02:21:01;2.78;;;2.28;;
40284;SDS011;25997;50.214;19.354;2023-07-28T02:24:04;4.72;;;2.88;;
40284;SDS011;25997;50.214;19.354;2023-07-28T02:27:07;7.95;;;2.90;;
40284;SDS011;25997;50.214;19.354;2023-07-28T02:30:11;3.97;;;2.55;;
40284;SDS011;25997;50.214;19.354;2023-07-28T02:33:13;3.28;;;2.53;;
40284;SDS011;25997;50.214;19.354;2023-07-28T02:36:15;4.13;;;2.60;;
40284;SDS011;25997;50.214;19.354;2023-07-28T02:39:18;3.67;;;2.60;;
40284;SDS011;25997;50.214;19.354;2023-07-28T02:42:21;3.80;;;2.67;;
40284;SDS011;25997;50.214;19.354;2023-07-28T02:45:26;3.70;;;2.30;;
40284;SDS011;25997;50.214;19.354;2023-07-28T02:48:28;3.20;;;2.42;;
40284;SDS011;25997;50.214;19.354;2023-07-28T02:51:30;3.83;;;2.75;;
40284;SDS011;25997;50.214;19.354;2023-07-28T02:54:34;3.85;;;2.38;;
40284;SDS011;25997;50.214;19.354;2023-07-28T02:57:36;3.60;;;2.22;;
40284;SDS011;25997;50.214;19.354;2023-07-28T03:00:40;3.05;;;2.30;;
40284;SDS011;25997;50.214;19.354;2023-07-28T03:03:45;3.72;;;2.53;;
40284;SDS011;25997;50.214;19.354;2023-07-28T03:06:48;5.50;;;2.25;;
40284;SDS011;25997;50.214;19.354;2023-07-28T03:09:50;7.07;;;2.38;;
40284;SDS011;25997;50.214;19.354;2023-07-28T03:12:53;4.65;;;2.90;;
40284;SDS011;25997;50.214;19.354;2023-07-28T03:15:57;5.47;;;2.92;;
40284;SDS011;25997;50.214;19.354;2023-07-28T03:19:00;3.63;;;2.25;;
40284;SDS011;25997;50.214;19.354;2023-07-28T03:22:02;6.68;;;2.75;;
40284;SDS011;25997;50.214;19.354;2023-07-28T03:25:05;3.90;;;2.67;;
40284;SDS011;25997;50.214;19.354;2023-07-28T03:28:08;4.47;;;2.80;;
40284;SDS011;25997;50.214;19.354;2023-07-28T03:31:12;2.95;;;2.42;;
40284;SDS011;25997;50.214;19.354;2023-07-28T03:34:14;5.63;;;2.80;;
40284;SDS011;25997;50.214;19.354;2023-07-28T03:37:17;4.18;;;2.95;;
40284;SDS011;25997;50.214;19.354;2023-07-28T03:40:20;4.28;;;2.60;;
40284;SDS011;25997;50.214;19.354;2023-07-28T03:43:26;3.78;;;2.67;;
40284;SDS011;25997;50.214;19.354;2023-07-28T03:46:30;3.00;;;2.50;;
40284;SDS011;25997;50.214;19.354;2023-07-28T03:49:32;3.35;;;2.67;;
40284;SDS011;25997;50.214;19.354;2023-07-28T03:52:35;4.57;;;3.35;;
40284;SDS011;25997;50.214;19.354;2023-07-28T03:55:37;4.22;;;2.97;;
40284;SDS011;25997;50.214;19.354;2023-07-28T03:58:40;3.28;;;2.70;;
40284;SDS011;25997;50.214;19.354;2023-07-28T04:01:43;5.55;;;2.60;;
40284;SDS011;25997;50.214;19.354;2023-07-28T04:04:46;4.85;;;2.83;;
40284;SDS011;25997;50.214;19.354;2023-07-28T04:07:48;3.83;;;2.80;;
40284;SDS011;25997;50.214;19.354;2023-07-28T04:10:51;4.25;;;2.95;;
40284;SDS011;25997;50.214;19.354;2023-07-28T04:13:54;3.55;;;2.40;;
40284;SDS011;25997;50.214;19.354;2023-07-28T04:16:57;3.42;;;2.38;;
40284;SDS011;25997;50.214;19.354;2023-07-28T04:20:00;5.15;;;2.63;;
40284;SDS011;25997;50.214;19.354;2023-07-28T04:23:02;3.30;;;2.33;;
40284;SDS011;25997;50.214;19.354;2023-07-28T04:26:10;4.72;;;2.80;;
40284;SDS011;25997;50.214;19.354;2023-07-28T04:29:14;3.20;;;2.47;;
40284;SDS011;25997;50.214;19.354;2023-07-28T04:32:18;2.85;;;2.15;;
40284;SDS011;25997;50.214;19.354;2023-07-28T04:35:20;3.13;;;2.47;;
40284;SDS011;25997;50.214;19.354;2023-07-28T04:38:29;3.03;;;2.53;;
40284;SDS011;25997;50.214;19.354;2023-07-28T04:41:33;3.75;;;2.53;;
40284;SDS011;25997;50.214;19.354;2023-07-28T04:44:36;3.72;;;2.83;;
40284;SDS011;25997;50.214;19.354;2023-07-28T04:47:41;4.15;;;3.28;;
40284;SDS011;25997;50.214;19.354;2023-07-28T04:50:44;4.00;;;2.72;;
40284;SDS011;25997;50.214;19.354;2023-07-28T04:53:56;4.22;;;2.90;;
40284;SDS011;25997;50.214;19.354;2023-07-28T04:57:03;4.50;;;2.95;;
40284;SDS011;25997;50.214;19.354;2023-07-28T05:00:09;4.82;;;3.47;;
40284;SDS011;25997;50.214;19.354;2023-07-28T05:03:14;6.95;;;2.88;;
40284;SDS011;25997;50.214;19.354;2023-07-28T05:06:27;4.80;;;3.33;;
40284;SDS011;25997;50.214;19.354;2023-07-28T05:09:30;5.78;;;3.00;;
40284;SDS011;25997;50.214;19.354;2023-07-28T05:12:32;4.88;;;3.00;;
40284;SDS011;25997;50.214;19.354;2023-07-28T05:15:35;4.18;;;2.80;;
40284;SDS011;25997;50.214;19.354;2023-07-28T05:18:41;4.32;;;3.15;;
40284;SDS011;25997;50.214;19.354;2023-07-28T05:22:16;5.93;;;3.33;;
40284;SDS011;25997;50.214;19.354;2023-07-28T05:25:22;4.85;;;3.45;;
40284;SDS011;25997;50.214;19.354;2023-07-28T05:28:25;3.33;;;2.70;;
40284;SDS011;25997;50.214;19.354;2023-07-28T05:31:30;4.93;;;3.25;;
40284;SDS011;25997;50.214;19.354;2023-07-28T05:34:35;6.50;;;3.45;;
40284;SDS011;25997;50.214;19.354;2023-07-28T05:37:37;4.40;;;3.20;;
40284;SDS011;25997;50.214;19.354;2023-07-28T05:40:43;5.90;;;3.35;;
40284;SDS011;25997;50.214;19.354;2023-07-28T05:43:45;4.30;;;2.70;;
40284;SDS011;25997;50.214;19.354;2023-07-28T05:46:48;4.45;;;3.00;;
40284;SDS011;25997;50.214;19.354;2023-07-28T05:49:53;3.58;;;2.65;;
40284;SDS011;25997;50.214;19.354;2023-07-28T05:52:57;4.07;;;2.97;;
40284;SDS011;25997;50.214;19.354;2023-07-28T05:56:00;3.45;;;2.90;;
40284;SDS011;25997;50.214;19.354;2023-07-28T05:59:05;5.40;;;3.35;;
40284;SDS011;25997;50.214;19.354;2023-07-28T06:02:07;4.13;;;2.92;;
40284;SDS011;25997;50.214;19.354;2023-07-28T06:05:20;4.88;;;2.92;;
40284;SDS011;25997;50.214;19.354;2023-07-28T06:08:23;3.63;;;2.60;;
40284;SDS011;25997;50.214;19.354;2023-07-28T06:11:26;3.92;;;3.22;;
40284;SDS011;25997;50.214;19.354;2023-07-28T06:14:29;5.07;;;2.85;;
40284;SDS011;25997;50.214;19.354;2023-07-28T06:17:34;3.70;;;2.55;;
40284;SDS011;25997;50.214;19.354;2023-07-28T06:20:37;3.30;;;2.40;;
40284;SDS011;25997;50.214;19.354;2023-07-28T06:23:44;3.20;;;2.47;;
40284;SDS011;25997;50.214;19.354;2023-07-28T06:26:47;3.53;;;2.92;;
40284;SDS011;25997;50.214;19.354;2023-07-28T06:29:51;3.10;;;2.35;;
40284;SDS011;25997;50.214;19.354;2023-07-28T06:32:53;3.47;;;2.70;;
40284;SDS011;25997;50.214;19.354;2023-07-28T06:35:58;4.25;;;2.67;;
40284;SDS011;25997;50.214;19.354;2023-07-28T06:39:00;7.82;;;3.00;;
40284;SDS011;25997;50.214;19.354;2023-07-28T06:42:03;3.55;;;2.70;;
40284;SDS011;25997;50.214;19.354;2023-07-28T06:45:06;6.43;;;3.35;;
40284;SDS011;25997;50.214;19.354;2023-07-28T06:48:09;4.38;;;2.60;;
40284;SDS011;25997;50.214;19.354;2023-07-28T06:51:13;2.83;;;2.22;;
40284;SDS011;25997;50.214;19.354;2023-07-28T06:54:17;3.42;;;2.63;;
40284;SDS011;25997;50.214;19.354;2023-07-28T06:57:19;5.53;;;3.33;;
40284;SDS011;25997;50.214;19.354;2023-07-28T07:00:22;4.28;;;2.72;;
40284;SDS011;25997;50.214;19.354;2023-07-28T07:03:25;3.85;;;2.67;;
40284;SDS011;25997;50.214;19.354;2023-07-28T07:06:29;5.55;;;2.60;;
40284;SDS011;25997;50.214;19.354;2023-07-28T07:09:32;4.18;;;2.65;;
40284;SDS011;25997;50.214;19.354;2023-07-28T07:12:35;4.55;;;2.47;;
40284;SDS011;25997;50.214;19.354;2023-07-28T07:15:38;6.05;;;2.83;;
40284;SDS011;25997;50.214;19.354;2023-07-28T07:18:40;4.40;;;2.50;;
40284;SDS011;25997;50.214;19.354;2023-07-28T07:21:44;4.15;;;2.97;;
40284;SDS011;25997;50.214;19.354;2023-07-28T07:24:48;4.30;;;3.10;;
40284;SDS011;25997;50.214;19.354;2023-07-28T07:27:50;4.00;;;2.92;;
40284;SDS011;25997;50.214;19.354;2023-07-28T07:30:53;3.83;;;3.17;;
40284;SDS011;25997;50.214;19.354;2023-07-28T07:33:57;3.88;;;2.67;;
40284;SDS011;25997;50.214;19.354;2023-07-28T07:37:02;3.78;;;2.95;;
40284;SDS011;25997;50.214;19.354;2023-07-28T07:40:05;4.15;;;3.38;;
40284;SDS011;25997;50.214;19.354;2023-07-28T07:43:08;3.67;;;2.78;;
40284;SDS011;25997;50.214;19.354;2023-07-28T07:46:11;5.30;;;3.50;;
40284;SDS011;25997;50.214;19.354;2023-07-28T07:49:14;3.85;;;3.25;;
40284;SDS011;25997;50.214;19.354;2023-07-28T07:52:17;4.43;;;3.10;;
40284;SDS011;25997;50.214;19.354;2023-07-28T07:55:20;3.92;;;3.17;;
40284;SDS011;25997;50.214;19.354;2023-07-28T07:58:23;3.65;;;3.03;;
40284;SDS011;25997;50.214;19.354;2023-07-28T08:01:25;4.22;;;3.28;;
40284;SDS011;25997;50.214;19.354;2023-07-28T08:04:29;3.92;;;3.17;;
40284;SDS011;25997;50.214;19.354;2023-07-28T08:07:33;6.65;;;3.53;;
40284;SDS011;25997;50.214;19.354;2023-07-28T08:10:36;4.35;;;3.78;;
40284;SDS011;25997;50.214;19.354;2023-07-28T08:13:41;5.13;;;4.60;;
40284;SDS011;25997;50.214;19.354;2023-07-28T08:16:43;5.10;;;3.65;;
40284;SDS011;25997;50.214;19.354;2023-07-28T08:19:46;3.95;;;3.33;;
40284;SDS011;25997;50.214;19.354;2023-07-28T08:22:49;4.00;;;3.08;;
40284;SDS011;25997;50.214;19.354;2023-07-28T08:25:52;3.78;;;2.80;;
40284;SDS011;25997;50.214;19.354;2023-07-28T08:28:55;6.80;;;4.65;;
40284;SDS011;25997;50.214;19.354;2023-07-28T08:31:57;6.45;;;5.03;;
40284;SDS011;25997;50.214;19.354;2023-07-28T08:35:00;9.80;;;6.90;;
40284;SDS011;25997;50.214;19.354;2023-07-28T08:38:09;6.30;;;5.00;;
40284;SDS011;25997;50.214;19.354;2023-07-28T08:41:35;6.57;;;5.32;;
40284;SDS011;25997;50.214;19.354;2023-07-28T08:44:38;5.13;;;4.10;;
40284;SDS011;25997;50.214;19.354;2023-07-28T08:47:41;3.75;;;2.90;;
40284;SDS011;25997;50.214;19.354;2023-07-28T08:50:44;5.85;;;3.97;;
40284;SDS011;25997;50.214;19.354;2023-07-28T08:53:48;6.93;;;3.92;;
40284;SDS011;25997;50.214;19.354;2023-07-28T08:56:51;5.90;;;2.97;;
40284;SDS011;25997;50.214;19.354;2023-07-28T08:59:55;4.28;;;3.03;;
40284;SDS011;25997;50.214;19.354;2023-07-28T09:02:58;3.85;;;3.08;;
40284;SDS011;25997;50.214;19.354;2023-07-28T09:06:01;3.55;;;2.80;;
40284;SDS011;25997;50.214;19.354;2023-07-28T09:09:07;4.15;;;3.00;;
40284;SDS011;25997;50.214;19.354;2023-07-28T09:12:10;5.13;;;3.45;;
40284;SDS011;25997;50.214;19.354;2023-07-28T09:15:12;4.07;;;2.60;;
40284;SDS011;25997;50.214;19.354;2023-07-28T09:18:15;4.63;;;2.72;;
40284;SDS011;25997;50.214;19.354;2023-07-28T09:21:20;4.28;;;3.38;;
40284;SDS011;25997;50.214;19.354;2023-07-28T09:24:28;4.80;;;3.10;;
40284;SDS011;25997;50.214;19.354;2023-07-28T09:27:33;3.97;;;3.45;;
40284;SDS011;25997;50.214;19.354;2023-07-28T09:30:43;3.88;;;3.25;;
40284;SDS011;25997;50.214;19.354;2023-07-28T09:33:49;4.07;;;3.35;;
40284;SDS011;25997;50.214;19.354;2023-07-28T09:36:52;3.78;;;2.83;;
40284;SDS011;25997;50.214;19.354;2023-07-28T09:39:56;4.90;;;3.45;;
40284;SDS011;25997;50.214;19.354;2023-07-28T09:43:00;4.65;;;3.53;;
40284;SDS011;25997;50.214;19.354;2023-07-28T09:46:03;3.83;;;3.20;;
40284;SDS011;25997;50.214;19.354;2023-07-28T09:49:09;6.20;;;3.65;;
40284;SDS011;25997;50.214;19.354;2023-07-28T09:52:14;5.60;;;4.28;;
40284;SDS011;25997;50.214;19.354;2023-07-28T09:55:21;4.78;;;3.80;;
40284;SDS011;25997;50.214;19.354;2023-07-28T09:58:24;5.40;;;3.78;;
40284;SDS011;25997;50.214;19.354;2023-07-28T10:01:29;5.72;;;3.78;;
40284;SDS011;25997;50.214;19.354;2023-07-28T10:04:32;5.43;;;3.65;;
40284;SDS011;25997;50.214;19.354;2023-07-28T10:07:35;6.25;;;3.67;;
40284;SDS011;25997;50.214;19.354;2023-07-28T10:10:41;4.97;;;3.85;;
40284;SDS011;25997;50.214;19.354;2023-07-28T10:13:43;5.03;;;3.08;;
40284;SDS011;25997;50.214;19.354;2023-07-28T10:16:47;4.03;;;2.80;;
40284;SDS011;25997;50.214;19.354;2023-07-28T10:19:50;4.28;;;3.35;;
40284;SDS011;25997;50.214;19.354;2023-07-28T10:22:53;5.82;;;3.28;;
40284;SDS011;25997;50.214;19.354;2023-07-28T10:25:58;5.00;;;3.75;;
40284;SDS011;25997;50.214;19.354;2023-07-28T10:29:09;4.00;;;3.28;;
40284;SDS011;25997;50.214;19.354;2023-07-28T10:32:13;3.70;;;3.30;;
40284;SDS011;25997;50.214;19.354;2023-07-28T10:35:28;4.35;;;3.10;;
40284;SDS011;25997;50.214;19.354;2023-07-28T10:38:33;4.38;;;3.47;;
40284;SDS011;25997;50.214;19.354;2023-07-28T10:41:38;5.53;;;3.35;;
40284;SDS011;25997;50.214;19.354;2023-07-28T10:44:42;3.55;;;2.90;;
40284;SDS011;25997;50.214;19.354;2023-07-28T10:47:51;5.68;;;3.15;;
40284;SDS011;25997;50.214;19.354;2023-07-28T10:50:56;5.63;;;3.10;;
40284;SDS011;25997;50.214;19.354;2023-07-28T10:53:59;4.40;;;2.72;;
40284;SDS011;25997;50.214;19.354;2023-07-28T10:57:06;5.63;;;3.53;;
40284;SDS011;25997;50.214;19.354;2023-07-28T11:00:10;3.83;;;2.85;;
40284;SDS011;25997;50.214;19.354;2023-07-28T11:03:14;4.30;;;2.80;;
40284;SDS011;25997;50.214;19.354;2023-07-28T11:06:16;3.40;;;2.65;;
40284;SDS011;25997;50.214;19.354;2023-07-28T11:09:19;3.28;;;2.88;;
40284;SDS011;25997;50.214;19.354;2023-07-28T11:12:26;3.92;;;3.03;;
40284;SDS011;25997;50.214;19.354;2023-07-28T11:15:30;3.75;;;2.60;;
40284;SDS011;25997;50.214;19.354;2023-07-28T11:18:33;3.40;;;2.63;;
40284;SDS011;25997;50.214;19.354;2023-07-28T11:21:36;3.10;;;2.47;;
40284;SDS011;25997;50.214;19.354;2023-07-28T11:24:40;3.42;;;2.40;;
40284;SDS011;25997;50.214;19.354;2023-07-28T11:27:44;3.47;;;2.70;;
40284;SDS011;25997;50.214;19.354;2023-07-28T11:30:48;3.72;;;2.92;;
40284;SDS011;25997;50.214;19.354;2023-07-28T11:33:50;3.25;;;2.65;;
40284;SDS011;25997;50.214;19.354;2023-07-28T11:36:53;5.82;;;2.90;;
40284;SDS011;25997;50.214;19.354;2023-07-28T11:39:56;3.25;;;2.60;;
40284;SDS011;25997;50.214;19.354;2023-07-28T11:43:02;3.75;;;2.55;;
40284;SDS011;25997;50.214;19.354;2023-07-28T11:49:45;3.75;;;3.08;;
40284;SDS011;25997;50.214;19.354;2023-07-28T11:52:48;3.45;;;2.92;;
40284;SDS011;25997;50.214;19.354;2023-07-28T11:55:51;4.10;;;2.58;;
40284;SDS011;25997;50.214;19.354;2023-07-28T11:58:55;3.80;;;3.25;;
40284;SDS011;25997;50.214;19.354;2023-07-28T12:01:58;3.13;;;2.53;;
40284;SDS011;25997;50.214;19.354;2023-07-28T12:05:01;3.95;;;2.15;;
40284;SDS011;25997;50.214;19.354;2023-07-28T12:08:14;3.05;;;2.75;;
40284;SDS011;25997;50.214;19.354;2023-07-28T12:11:16;2.70;;;2.40;;
40284;SDS011;25997;50.214;19.354;2023-07-28T12:14:31;4.45;;;2.60;;
40284;SDS011;25997;50.214;19.354;2023-07-28T12:17:34;3.47;;;2.60;;
40284;SDS011;25997;50.214;19.354;2023-07-28T12:20:37;3.30;;;2.22;;
40284;SDS011;25997;50.214;19.354;2023-07-28T12:23:42;3.53;;;2.42;;
40284;SDS011;25997;50.214;19.354;2023-07-28T12:26:45;5.03;;;2.90;;
40284;SDS011;25997;50.214;19.354;2023-07-28T12:29:49;4.13;;;2.60;;
40284;SDS011;25997;50.214;19.354;2023-07-28T12:32:52;3.45;;;2.42;;
40284;SDS011;25997;50.214;19.354;2023-07-28T12:35:55;3.03;;;2.25;;
40284;SDS011;25997;50.214;19.354;2023-07-28T12:38:57;3.80;;;2.45;;
40284;SDS011;25997;50.214;19.354;2023-07-28T12:42:00;3.35;;;2.97;;
40284;SDS011;25997;50.214;19.354;2023-07-28T12:45:04;3.72;;;2.95;;
40284;SDS011;25997;50.214;19.354;2023-07-28T12:48:07;3.15;;;2.40;;
40284;SDS011;25997;50.214;19.354;2023-07-28T12:51:10;3.08;;;2.53;;
40284;SDS011;25997;50.214;19.354;2023-07-28T12:54:13;4.13;;;2.38;;
40284;SDS011;25997;50.214;19.354;2023-07-28T12:57:15;3.17;;;2.30;;
40284;SDS011;25997;50.214;19.354;2023-07-28T13:00:20;2.65;;;2.03;;
40284;SDS011;25997;50.214;19.354;2023-07-28T13:03:22;2.30;;;1.88;;
40284;SDS011;25997;50.214;19.354;2023-07-28T13:06:25;2.40;;;2.10;;
40284;SDS011;25997;50.214;19.354;2023-07-28T13:09:27;3.10;;;2.10;;
40284;SDS011;25997;50.214;19.354;2023-07-28T13:12:30;2.30;;;1.83;;
40284;SDS011;25997;50.214;19.354;2023-07-28T13:15:34;2.35;;;2.13;;
40284;SDS011;25997;50.214;19.354;2023-07-28T13:18:36;2.70;;;2.00;;
40284;SDS011;25997;50.214;19.354;2023-07-28T13:21:40;2.10;;;1.73;;
40284;SDS011;25997;50.214;19.354;2023-07-28T13:24:42;2.88;;;2.20;;
40284;SDS011;25997;50.214;19.354;2023-07-28T13:27:45;2.58;;;1.85;;
40284;SDS011;25997;50.214;19.354;2023-07-28T13:30:48;2.88;;;1.50;;
40284;SDS011;25997;50.214;19.354;2023-07-28T13:33:53;2.83;;;2.03;;
40284;SDS011;25997;50.214;19.354;2023-07-28T13:36:56;3.05;;;1.80;;
40284;SDS011;25997;50.214;19.354;2023-07-28T13:39:59;4.10;;;1.67;;
40284;SDS011;25997;50.214;19.354;2023-07-28T13:43:01;3.33;;;2.13;;
40284;SDS011;25997;50.214;19.354;2023-07-28T13:46:05;3.13;;;1.60;;
40284;SDS011;25997;50.214;19.354;2023-07-28T13:49:07;1.90;;;1.70;;
40284;SDS011;25997;50.214;19.354;2023-07-28T13:52:10;1.83;;;1.40;;
40284;SDS011;25997;50.214;19.354;2023-07-28T13:55:14;2.17;;;1.50;;
40284;SDS011;25997;50.214;19.354;2023-07-28T13:58:16;1.88;;;1.50;;
40284;SDS011;25997;50.214;19.354;2023-07-28T14:01:20;1.98;;;1.50;;
40284;SDS011;25997;50.214;19.354;2023-07-28T14:04:23;3.28;;;1.63;;
40284;SDS011;25997;50.214;19.354;2023-07-28T14:07:26;1.95;;;1.55;;
40284;SDS011;25997;50.214;19.354;2023-07-28T14:10:29;2.13;;;1.65;;
40284;SDS011;25997;50.214;19.354;2023-07-28T14:13:32;1.92;;;1.70;;
40284;SDS011;25997;50.214;19.354;2023-07-28T14:16:36;2.33;;;1.92;;
40284;SDS011;25997;50.214;19.354;2023-07-28T14:19:40;2.22;;;1.50;;
40284;SDS011;25997;50.214;19.354;2023-07-28T14:22:43;1.88;;;1.50;;
40284;SDS011;25997;50.214;19.354;2023-07-28T14:25:45;2.15;;;1.95;;
40284;SDS011;25997;50.214;19.354;2023-07-28T14:28:49;2.22;;;1.55;;
40284;SDS011;25997;50.214;19.354;2023-07-28T14:31:53;2.20;;;1.95;;
40284;SDS011;25997;50.214;19.354;2023-07-28T14:34:55;1.83;;;1.58;;
40284;SDS011;25997;50.214;19.354;2023-07-28T14:37:58;2.08;;;1.65;;
40284;SDS011;25997;50.214;19.354;2023-07-28T14:41:00;2.45;;;1.92;;
40284;SDS011;25997;50.214;19.354;2023-07-28T14:44:03;3.25;;;2.47;;
40284;SDS011;25997;50.214;19.354;2023-07-28T14:47:07;2.55;;;1.88;;
40284;SDS011;25997;50.214;19.354;2023-07-28T14:50:09;3.08;;;2.03;;
40284;SDS011;25997;50.214;19.354;2023-07-28T14:53:28;2.80;;;2.40;;
40284;SDS011;25997;50.214;19.354;2023-07-28T14:56:32;3.00;;;2.47;;
40284;SDS011;25997;50.214;19.354;2023-07-28T14:59:34;3.80;;;2.10;;
40284;SDS011;25997;50.214;19.354;2023-07-28T15:02:38;3.13;;;1.50;;
40284;SDS011;25997;50.214;19.354;2023-07-28T15:05:40;2.40;;;1.77;;
40284;SDS011;25997;50.214;19.354;2023-07-28T15:08:43;2.00;;;1.70;;
40284;SDS011;25997;50.214;19.354;2023-07-28T15:11:45;2.92;;;1.80;;
40284;SDS011;25997;50.214;19.354;2023-07-28T15:14:48;2.00;;;1.45;;
40284;SDS011;25997;50.214;19.354;2023-07-28T15:17:52;2.15;;;1.45;;
40284;SDS011;25997;50.214;19.354;2023-07-28T15:20:54;2.28;;;1.90;;
40284;SDS011;25997;50.214;19.354;2023-07-28T15:23:57;1.88;;;1.65;;
40284;SDS011;25997;50.214;19.354;2023-07-28T15:26:59;3.13;;;1.48;;
40284;SDS011;25997;50.214;19.354;2023-07-28T15:30:01;1.92;;;1.70;;
40284;SDS011;25997;50.214;19.354;2023-07-28T15:33:07;3.75;;;2.03;;
40284;SDS011;25997;50.214;19.354;2023-07-28T15:36:10;1.75;;;1.40;;
40284;SDS011;25997;50.214;19.354;2023-07-28T15:39:12;2.15;;;1.40;;
40284;SDS011;25997;50.214;19.354;2023-07-28T15:42:15;2.25;;;1.48;;
40284;SDS011;25997;50.214;19.354;2023-07-28T15:45:18;5.80;;;1.98;;
40284;SDS011;25997;50.214;19.354;2023-07-28T15:48:23;2.58;;;2.00;;
40284;SDS011;25997;50.214;19.354;2023-07-28T15:51:26;2.17;;;1.70;;
40284;SDS011;25997;50.214;19.354;2023-07-28T15:54:28;2.67;;;1.92;;
40284;SDS011;25997;50.214;19.354;2023-07-28T15:57:31;1.75;;;1.50;;
40284;SDS011;25997;50.214;19.354;2023-07-28T16:00:34;4.50;;;1.70;;
40284;SDS011;25997;50.214;19.354;2023-07-28T16:03:38;2.53;;;1.60;;
40284;SDS011;25997;50.214;19.354;2023-07-28T16:06:40;2.97;;;2.20;;
40284;SDS011;25997;50.214;19.354;2023-07-28T16:09:43;2.03;;;1.80;;
40284;SDS011;25997;50.214;19.354;2023-07-28T16:12:46;2.25;;;1.90;;
40284;SDS011;25997;50.214;19.354;2023-07-28T16:15:48;2.17;;;1.80;;
40284;SDS011;25997;50.214;19.354;2023-07-28T16:18:52;4.07;;;1.50;;
40284;SDS011;25997;50.214;19.354;2023-07-28T16:21:55;2.03;;;1.48;;
40284;SDS011;25997;50.214;19.354;2023-07-28T16:24:58;1.70;;;1.20;;
40284;SDS011;25997;50.214;19.354;2023-07-28T16:28:01;1.30;;;1.00;;
40284;SDS011;25997;50.214;19.354;2023-07-28T16:31:04;2.15;;;1.42;;
40284;SDS011;25997;50.214;19.354;2023-07-28T16:34:09;2.00;;;1.60;;
40284;SDS011;25997;50.214;19.354;2023-07-28T16:37:11;1.85;;;1.15;;
40284;SDS011;25997;50.214;19.354;2023-07-28T16:40:14;2.15;;;1.52;;
40284;SDS011;25997;50.214;19.354;2023-07-28T16:43:16;2.35;;;1.17;;
40284;SDS011;25997;50.214;19.354;2023-07-28T16:46:19;2.90;;;1.30;;
40284;SDS011;25997;50.214;19.354;2023-07-28T16:49:23;2.08;;;1.15;;
40284;SDS011;25997;50.214;19.354;2023-07-28T16:52:26;2.08;;;1.30;;
40284;SDS011;25997;50.214;19.354;2023-07-28T16:55:29;2.10;;;1.45;;
40284;SDS011;25997;50.214;19.354;2023-07-28T16:58:33;3.40;;;1.40;;
40284;SDS011;25997;50.214;19.354;2023-07-28T17:01:36;1.88;;;1.42;;
40284;SDS011;25997;50.214;19.354;2023-07-28T17:04:40;3.15;;;1.45;;
40284;SDS011;25997;50.214;19.354;2023-07-28T17:07:42;1.90;;;1.30;;
40284;SDS011;25997;50.214;19.354;2023-07-28T17:10:45;1.80;;;1.30;;
40284;SDS011;25997;50.214;19.354;2023-07-28T17:13:47;3.85;;;1.50;;
40284;SDS011;25997;50.214;19.354;2023-07-28T17:16:50;2.00;;;1.40;;
40284;SDS011;25997;50.214;19.354;2023-07-28T17:19:54;2.15;;;1.30;;
40284;SDS011;25997;50.214;19.354;2023-07-28T17:22:59;2.00;;;1.42;;
40284;SDS011;25997;50.214;19.354;2023-07-28T17:26:01;3.65;;;2.10;;
40284;SDS011;25997;50.214;19.354;2023-07-28T17:29:04;3.72;;;1.80;;
40284;SDS011;25997;50.214;19.354;2023-07-28T17:32:06;3.35;;;2.00;;
40284;SDS011;25997;50.214;19.354;2023-07-28T17:35:12;2.80;;;1.70;;
40284;SDS011;25997;50.214;19.354;2023-07-28T17:38:15;2.72;;;2.25;;
40284;SDS011;25997;50.214;19.354;2023-07-28T17:41:17;3.63;;;2.00;;
40284;SDS011;25997;50.214;19.354;2023-07-28T17:44:20;3.05;;;1.60;;
40284;SDS011;25997;50.214;19.354;2023-07-28T17:47:23;3.10;;;2.25;;
40284;SDS011;25997;50.214;19.354;2023-07-28T17:50:26;4.70;;;2.03;;
40284;SDS011;25997;50.214;19.354;2023-07-28T17:53:29;2.88;;;2.05;;
40284;SDS011;25997;50.214;19.354;2023-07-28T17:56:33;2.60;;;1.83;;
40284;SDS011;25997;50.214;19.354;2023-07-28T17:59:35;3.05;;;2.17;;
40284;SDS011;25997;50.214;19.354;2023-07-28T18:02:38;5.88;;;2.33;;
40284;SDS011;25997;50.214;19.354;2023-07-28T18:05:42;4.60;;;2.22;;
40284;SDS011;25997;50.214;19.354;2023-07-28T18:08:44;3.40;;;2.42;;
40284;SDS011;25997;50.214;19.354;2023-07-28T18:11:47;3.25;;;2.08;;